Time;durP1;ratioP1;P1;durP2;ratioP2;P2;SDS_P1;SDS_P2;PMS_P1;PMS_P2;Temp;Humidity;BMP_temperature;BMP_pressure;BME280_temperature;BME280_humidity;BME280_pressure;Samples;Min_cycle;Max_cycle;Signal;HPM_P1;HPM_P2
2022/07/11 00:00:43;;;;;;;3.42;2.60;;;14.70;99.90;;;15.44;72.19;98578.56;5137409;28;20266;-56
2022/07/11 00:03:17;;;;;;;2.67;2.45;;;14.70;99.90;;;15.46;71.69;98576.94;5138856;28;20207;-57
2022/07/11 00:05:51;;;;;;;3.38;2.47;;;14.70;99.90;;;15.46;72.09;98582.09;5138579;28;20207;-58
2022/07/11 00:08:24;;;;;;;3.10;2.80;;;14.70;99.90;;;15.41;71.33;98579.28;5138020;28;20196;-58
2022/07/11 00:10:57;;;;;;;3.55;2.78;;;14.70;99.90;;;15.41;71.64;98575.81;5140722;28;20266;-59
2022/07/11 00:13:30;;;;;;;5.00;2.90;;;14.60;99.90;;;15.39;71.87;98577.44;5137375;28;20220;-56
2022/07/11 00:16:04;;;;;;;2.83;2.63;;;14.60;99.90;;;15.36;71.89;98569.56;5138764;28;20677;-57
2022/07/11 00:18:45;;;;;;;3.13;2.90;;;14.60;99.90;;;15.38;71.97;98573.97;5139011;28;20212;-56
2022/07/11 00:21:19;;;;;;;2.58;2.38;;;14.70;99.90;;;15.38;71.23;98562.78;5139364;28;20969;-55
2022/07/11 00:23:52;;;;;;;3.55;2.78;;;14.60;99.90;;;15.31;70.98;98562.50;5134134;28;20247;-57
2022/07/11 00:26:25;;;;;;;3.00;2.70;;;14.50;99.90;;;15.24;71.67;98562.97;5136623;28;20210;-57
2022/07/11 00:28:58;;;;;;;3.00;2.72;;;14.50;99.90;;;15.27;71.91;98563.13;5136565;28;20230;-58
2022/07/11 00:31:31;;;;;;;2.75;2.50;;;14.50;99.90;;;15.33;71.36;98559.97;5137712;28;20239;-58
2022/07/11 00:34:06;;;;;;;3.33;2.53;;;14.50;99.90;;;15.33;71.64;98554.81;5138681;28;20290;-56
2022/07/11 00:36:39;;;;;;;2.78;2.58;;;14.60;99.90;;;15.40;71.60;98561.19;5137605;28;20210;-55
2022/07/11 00:39:13;;;;;;;3.30;2.72;;;14.60;99.90;;;15.37;72.13;98561.03;5140174;28;20270;-58
2022/07/11 00:41:46;;;;;;;2.80;2.60;;;14.60;99.90;;;15.40;71.83;98551.75;5135195;28;20751;-57
2022/07/11 00:44:19;;;;;;;2.40;2.25;;;14.60;99.90;;;15.39;71.95;98554.25;5138658;28;20205;-58
2022/07/11 00:46:53;;;;;;;3.05;2.85;;;14.60;99.90;;;15.36;71.39;98556.69;5139546;28;20204;-56
2022/07/11 00:49:28;;;;;;;4.18;2.80;;;14.50;99.90;;;15.32;71.89;98551.38;5139755;28;20195;-57
2022/07/11 00:52:02;;;;;;;3.15;2.70;;;14.50;99.90;;;15.25;72.86;98541.59;5141639;28;21758;-55
2022/07/11 00:54:35;;;;;;;2.80;2.60;;;14.50;99.90;;;15.27;72.46;98545.09;5143027;28;20204;-57
2022/07/11 00:57:08;;;;;;;2.75;2.55;;;14.50;99.90;;;15.28;72.46;98549.47;5141944;28;20234;-56
2022/07/11 00:59:41;;;;;;;2.60;2.45;;;14.50;99.90;;;15.26;72.90;98542.47;5140434;28;20221;-57
2022/07/11 01:02:14;;;;;;;2.80;2.60;;;14.40;99.90;;;15.14;72.30;98539.25;5139815;28;20510;-57
2022/07/11 01:04:49;;;;;;;2.95;2.75;;;14.30;99.90;;;14.99;72.30;98547.09;5141197;28;20863;-54
2022/07/11 01:07:22;;;;;;;2.97;2.72;;;14.10;99.90;;;14.91;74.17;98546.72;5141436;28;20207;-56
2022/07/11 01:09:55;;;;;;;2.85;2.58;;;14.10;99.90;;;14.96;73.96;98546.94;5140933;28;20196;-57
2022/07/11 01:12:29;;;;;;;3.30;3.00;;;14.10;99.90;;;14.93;73.44;98546.78;5141269;28;20196;-55
2022/07/11 01:15:05;;;;;;;3.28;2.88;;;14.10;99.90;;;15.01;74.02;98550.66;5140178;28;20634;-56
2022/07/11 01:17:38;;;;;;;3.05;2.83;;;14.20;99.90;;;15.05;74.42;98549.97;5138927;28;20718;-53
2022/07/11 01:20:13;;;;;;;3.10;2.80;;;14.30;99.90;;;15.05;74.31;98548.31;5140135;28;20225;-55
2022/07/11 01:22:49;;;;;;;2.97;2.78;;;14.30;99.90;;;15.06;73.91;98539.78;5140338;28;20208;-57
2022/07/11 01:25:34;;;;;;;3.58;2.90;;;14.30;99.90;;;14.99;74.67;98545.41;5135332;28;20208;-54
2022/07/11 01:28:07;;;;;;;3.03;2.70;;;14.20;99.90;;;14.95;73.89;98551.22;5144980;28;20258;-53
2022/07/11 01:30:40;;;;;;;3.25;2.95;;;14.20;99.90;;;14.97;74.58;98539.31;5139239;28;20220;-56
2022/07/11 01:33:14;;;;;;;2.80;2.70;;;14.20;99.90;;;14.89;74.17;98532.91;5139470;28;20248;-55
2022/07/11 01:35:47;;;;;;;3.28;2.72;;;14.10;99.90;;;14.94;73.77;98538.28;5141843;28;20255;-58
2022/07/11 01:38:20;;;;;;;3.75;3.05;;;14.10;99.90;;;14.97;75.14;98531.59;5135871;28;20223;-55
2022/07/11 01:40:55;;;;;;;3.35;3.00;;;14.20;99.90;;;14.98;74.30;98537.63;5138667;28;20231;-57
2022/07/11 01:43:29;;;;;;;2.90;2.70;;;14.20;99.90;;;14.92;73.95;98539.88;5140343;28;20211;-55
2022/07/11 01:46:02;;;;;;;3.17;2.97;;;14.10;99.90;;;14.94;74.21;98538.28;5139233;28;20208;-56
2022/07/11 01:48:35;;;;;;;3.17;2.88;;;14.20;99.90;;;14.98;74.80;98535.06;5139431;28;20200;-56
2022/07/11 01:51:08;;;;;;;2.90;2.70;;;14.20;99.90;;;15.03;73.96;98536.16;5140242;28;20277;-57
2022/07/11 01:53:42;;;;;;;3.05;2.75;;;14.20;99.90;;;15.06;74.38;98534.63;5139563;28;20258;-55
2022/07/11 01:56:17;;;;;;;2.97;2.65;;;14.30;99.90;;;15.09;74.82;98534.78;5138612;28;20204;-55
2022/07/11 01:58:52;;;;;;;3.15;2.90;;;14.30;99.90;;;15.17;73.58;98535.16;5139791;28;20208;-58
2022/07/11 02:01:26;;;;;;;3.08;2.78;;;14.30;99.90;;;15.12;73.78;98534.06;5140104;28;20279;-55
2022/07/11 02:04:01;;;;;;;3.55;2.83;;;14.30;99.90;;;15.01;74.99;98536.06;5136727;28;20215;-57
2022/07/11 02:06:34;;;;;;;3.22;2.90;;;14.20;99.90;;;15.04;74.62;98532.78;5137989;28;20203;-57
2022/07/11 02:09:07;;;;;;;3.20;2.92;;;14.20;99.90;;;15.07;74.44;98530.34;5136906;28;20196;-56
2022/07/11 02:11:42;;;;;;;3.50;2.83;;;14.20;99.90;;;15.00;75.00;98530.88;5140250;28;20614;-57
2022/07/11 02:14:15;;;;;;;3.28;2.97;;;14.20;99.90;;;14.97;75.71;98523.00;5141043;28;20204;-55
2022/07/11 02:16:48;;;;;;;3.30;3.10;;;14.20;99.90;;;15.04;76.14;98525.94;5141460;28;20204;-58
2022/07/11 02:19:23;;;;;;;3.35;2.80;;;14.30;99.90;;;15.03;74.50;98518.16;5141342;28;20221;-57
2022/07/11 02:21:56;;;;;;;3.78;2.97;;;14.30;99.90;;;15.02;74.88;98527.56;5138413;28;20597;-57
2022/07/11 02:24:30;;;;;;;3.30;3.00;;;14.30;99.90;;;15.05;74.37;98529.38;5139818;28;20550;-56
2022/07/11 02:27:05;;;;;;;2.95;2.75;;;14.30;99.90;;;15.10;74.63;98530.50;5141076;28;20212;-59
2022/07/11 02:29:39;;;;;;;3.90;2.78;;;14.30;99.90;;;15.14;74.10;98526.38;5139225;28;20199;-59
2022/07/11 02:32:12;;;;;;;3.15;2.85;;;14.40;99.90;;;15.12;74.28;98528.91;5139268;28;20279;-57
2022/07/11 02:34:45;;;;;;;2.92;2.67;;;14.40;99.90;;;15.10;75.01;98520.22;5139820;28;20270;-56
2022/07/11 02:37:19;;;;;;;3.30;3.03;;;14.40;99.90;;;15.10;74.51;98526.22;5139117;28;20673;-56
2022/07/11 02:39:52;;;;;;;3.10;2.90;;;14.30;99.90;;;15.14;74.65;98521.22;5138270;28;20572;-57
2022/07/11 02:42:27;;;;;;;6.05;3.13;;;14.30;99.90;;;15.18;74.26;98518.91;5139757;28;20925;-57
2022/07/11 02:45:00;;;;;;;3.85;2.65;;;14.40;99.90;;;15.23;75.03;98526.88;5140183;28;20239;-57
2022/07/11 02:47:33;;;;;;;3.22;2.72;;;14.40;99.90;;;15.25;74.77;98517.50;5140796;28;20245;-55
2022/07/11 02:50:10;;;;;;;3.90;2.72;;;14.40;99.90;;;15.24;75.52;98519.19;5138147;28;20196;-55
2022/07/11 02:52:45;;;;;;;3.22;2.63;;;14.40;99.90;;;15.22;76.82;98525.06;5139147;28;20206;-57
2022/07/11 02:55:18;;;;;;;2.70;2.50;;;14.40;99.90;;;15.25;75.78;98531.28;5140011;28;20896;-56
2022/07/11 02:57:52;;;;;;;3.00;2.78;;;14.40;99.90;;;15.24;76.53;98521.78;5140826;28;20251;-56
2022/07/11 03:00:26;;;;;;;2.90;2.70;;;14.50;99.90;;;15.21;75.17;98523.31;5136963;28;20249;-56
2022/07/11 03:02:59;;;;;;;3.90;3.17;;;14.40;99.90;;;15.12;74.85;98516.03;5138929;28;20252;-57
2022/07/11 03:05:32;;;;;;;2.90;2.60;;;14.40;99.90;;;14.90;75.17;98531.19;5139013;28;20196;-55
2022/07/11 03:08:05;;;;;;;3.28;2.90;;;14.10;99.90;;;14.95;75.17;98522.03;5136792;28;20200;-56
2022/07/11 03:10:38;;;;;;;2.83;2.72;;;14.20;99.90;;;15.02;74.85;98536.97;5139561;28;20270;-57
2022/07/11 03:13:13;;;;;;;2.88;2.67;;;14.20;99.90;;;15.06;75.53;98523.44;5136070;28;20200;-57
2022/07/11 03:15:46;;;;;;;3.30;3.00;;;14.30;99.90;;;15.08;74.63;98521.84;5139914;28;20199;-56
2022/07/11 03:18:19;;;;;;;3.08;2.85;;;14.30;99.90;;;15.15;74.94;98525.59;5137115;28;20231;-56
2022/07/11 03:20:53;;;;;;;3.78;2.85;;;14.30;99.90;;;15.16;74.21;98525.66;5134362;28;20904;-57
2022/07/11 03:23:26;;;;;;;3.17;2.80;;;14.40;99.90;;;15.14;74.84;98516.09;5137792;28;20249;-54
2022/07/11 03:25:59;;;;;;;2.97;2.78;;;14.40;99.90;;;15.18;75.04;98521.47;5136278;28;20243;-56
2022/07/11 03:28:33;;;;;;;2.85;2.65;;;14.40;99.90;;;15.22;74.83;98520.84;5135357;28;20231;-56
2022/07/11 03:31:06;;;;;;;3.38;3.08;;;14.50;99.90;;;15.24;74.54;98516.63;5137954;28;20285;-57
2022/07/11 03:33:39;;;;;;;2.78;2.58;;;14.50;99.90;;;15.24;75.22;98524.34;5139494;28;20606;-56
2022/07/11 03:36:13;;;;;;;3.28;2.95;;;14.50;99.90;;;15.25;75.41;98521.00;5133990;28;20204;-57
2022/07/11 03:38:46;;;;;;;2.97;2.78;;;14.50;99.90;;;15.25;75.24;98525.22;5137952;28;20258;-57
2022/07/11 03:41:20;;;;;;;3.05;2.85;;;14.50;99.90;;;15.22;74.97;98531.13;5134478;28;20274;-54
2022/07/11 03:43:56;;;;;;;3.63;2.78;;;14.50;99.90;;;15.23;75.79;98527.75;5133195;28;20211;-55
2022/07/11 03:46:29;;;;;;;2.85;2.65;;;14.50;99.90;;;15.32;75.13;98530.78;5137679;28;20207;-57
2022/07/11 03:49:02;;;;;;;3.20;3.00;;;14.60;99.90;;;15.32;74.78;98535.03;5135508;28;20655;-57
2022/07/11 03:51:36;;;;;;;3.55;3.17;;;14.50;99.90;;;15.33;75.05;98529.06;5136601;28;20215;-54
2022/07/11 03:54:09;;;;;;;3.30;2.88;;;14.50;99.90;;;15.39;75.04;98520.75;5140338;28;20196;-54
2022/07/11 03:56:42;;;;;;;3.08;2.88;;;14.60;99.90;;;15.33;75.70;98524.78;5135467;28;20255;-53
2022/07/11 03:59:16;;;;;;;4.25;3.28;;;14.60;99.90;;;15.39;74.80;98515.59;5137523;28;20258;-56
2022/07/11 04:01:49;;;;;;;3.45;3.13;;;14.60;99.90;;;15.44;74.72;98521.88;5137144;28;20242;-55
2022/07/11 04:04:23;;;;;;;4.35;3.10;;;14.60;99.90;;;15.41;74.92;98521.72;5137360;28;20291;-53
2022/07/11 04:06:56;;;;;;;3.25;2.92;;;14.60;99.90;;;15.45;74.82;98521.06;5129884;28;20264;-55
2022/07/11 04:09:29;;;;;;;3.80;3.13;;;14.60;99.90;;;15.42;74.56;98518.31;5127510;28;20740;-53
2022/07/11 04:12:02;;;;;;;3.35;3.15;;;14.60;99.90;;;15.32;75.13;98517.88;5132111;28;20711;-54
2022/07/11 04:14:36;;;;;;;3.70;3.38;;;14.50;99.90;;;15.36;75.36;98528.34;5136686;28;20203;-53
2022/07/11 04:17:09;;;;;;;3.53;2.90;;;14.60;99.90;;;15.43;75.22;98525.28;5142357;28;20204;-57
2022/07/11 04:19:43;;;;;;;3.63;3.35;;;14.60;99.90;;;15.43;74.30;98521.00;5139607;28;20212;-52
2022/07/11 04:22:17;;;;;;;3.40;2.90;;;14.60;99.90;;;15.44;75.44;98525.31;5132190;28;20271;-56
2022/07/11 04:24:50;;;;;;;3.10;2.88;;;14.60;99.90;;;15.48;75.14;98531.50;5138592;28;20204;-54
2022/07/11 04:27:24;;;;;;;3.15;2.88;;;14.70;99.90;;;15.52;75.67;98529.16;5153133;28;20217;-55
2022/07/11 04:30:05;;;;;;;3.92;2.95;;;14.70;99.90;;;15.53;75.07;98532.63;5136366;28;20299;-58
2022/07/11 04:32:38;;;;;;;3.00;2.80;;;14.70;99.90;;;15.57;75.40;98529.41;5138530;28;20263;-58
2022/07/11 04:35:11;;;;;;;3.50;3.20;;;14.70;99.90;;;15.60;74.92;98524.38;5143663;28;20212;-57
2022/07/11 04:37:44;;;;;;;3.53;3.33;;;14.80;99.90;;;15.66;74.77;98529.84;5140479;28;20263;-59
2022/07/11 04:40:18;;;;;;;2.88;2.67;;;14.80;99.90;;;15.68;74.38;98527.34;5141194;28;20227;-59
2022/07/11 04:42:51;;;;;;;3.17;2.97;;;14.90;99.90;;;15.67;74.02;98529.00;5144230;28;20208;-56
2022/07/11 04:45:26;;;;;;;3.45;3.15;;;14.90;99.90;;;15.63;73.72;98529.69;5141922;28;20933;-58
2022/07/11 04:48:01;;;;;;;3.55;3.25;;;14.80;99.90;;;15.68;74.23;98528.25;5138111;28;20195;-57
2022/07/11 04:50:34;;;;;;;3.30;3.00;;;14.90;99.90;;;15.75;74.46;98529.41;5143184;28;20230;-58
2022/07/11 04:53:07;;;;;;;3.28;3.03;;;15.00;99.90;;;15.82;73.77;98530.59;5139349;28;20199;-58
2022/07/11 04:55:41;;;;;;;3.85;2.97;;;15.00;99.90;;;15.83;73.76;98522.94;5142678;28;20200;-57
2022/07/11 04:58:15;;;;;;;3.97;3.15;;;15.10;99.90;;;15.84;73.83;98519.53;5142506;28;20737;-56
2022/07/11 05:00:49;;;;;;;3.72;3.08;;;15.10;99.90;;;15.87;74.28;98521.38;5138029;28;20231;-57
2022/07/11 05:03:22;;;;;;;3.42;3.13;;;15.10;99.90;;;15.96;72.97;98529.53;5135228;28;20231;-58
2022/07/11 05:05:55;;;;;;;3.15;2.95;;;15.20;99.90;;;16.00;73.22;98536.63;5145280;28;20208;-55
2022/07/11 05:08:29;;;;;;;3.30;3.10;;;15.20;99.90;;;16.08;72.68;98529.22;5145992;28;20274;-57
2022/07/11 05:11:03;;;;;;;3.38;3.10;;;15.20;99.90;;;16.05;72.89;98531.66;5135988;28;20271;-53
2022/07/11 05:13:37;;;;;;;3.55;3.20;;;15.20;99.90;;;16.10;73.26;98531.06;5140034;28;20569;-55
2022/07/11 05:16:12;;;;;;;4.22;3.33;;;15.30;99.90;;;16.23;73.04;98529.06;5140552;28;20213;-58
2022/07/11 05:18:45;;;;;;;3.28;3.00;;;15.40;99.90;;;16.36;72.36;98527.06;5137684;28;20208;-58
2022/07/11 05:21:22;;;;;;;5.30;3.25;;;15.50;99.90;;;16.34;71.59;98526.16;5134495;28;20298;-57
2022/07/11 05:23:55;;;;;;;3.67;3.08;;;15.50;99.90;;;16.43;71.28;98528.25;5143092;28;20745;-59
2022/07/11 05:26:28;;;;;;;3.30;2.95;;;15.60;99.90;;;16.55;71.01;98526.22;5145920;28;20722;-57
2022/07/11 05:29:01;;;;;;;4.28;3.83;;;15.70;99.90;;;16.66;70.85;98532.72;5139347;28;20720;-59
2022/07/11 05:31:35;;;;;;;4.70;2.90;;;15.80;99.90;;;16.77;71.00;98542.66;5134297;28;20219;-57
2022/07/11 05:34:09;;;;;;;3.47;3.03;;;15.90;99.90;;;16.76;70.71;98540.88;5134038;28;20236;-58
2022/07/11 05:36:43;;;;;;;4.40;3.13;;;15.90;99.90;;;16.87;70.43;98537.09;5141060;28;20208;-57
2022/07/11 05:39:16;;;;;;;3.83;3.22;;;16.00;99.90;;;17.00;70.20;98543.69;5138974;28;20212;-57
2022/07/11 05:41:51;;;;;;;3.40;3.10;;;16.20;99.90;;;17.10;69.21;98541.53;5139708;28;20630;-58
2022/07/11 05:44:24;;;;;;;3.35;3.05;;;16.20;99.90;;;17.15;68.85;98546.03;5140428;28;20625;-57
2022/07/11 05:47:02;;;;;;;2.65;2.50;;;16.20;99.90;;;17.28;68.76;98549.19;5141574;28;20196;-58
2022/07/11 05:49:35;;;;;;;3.20;3.00;;;16.30;99.90;;;17.34;68.11;98549.44;5141891;28;20291;-58
2022/07/11 05:52:09;;;;;;;3.95;3.17;;;16.40;99.90;;;17.39;67.62;98544.44;5140854;28;20220;-58
2022/07/11 05:54:42;;;;;;;2.78;2.58;;;16.50;99.90;;;17.60;67.51;98546.13;5141081;28;20286;-57
2022/07/11 05:57:15;;;;;;;3.20;2.90;;;16.60;99.90;;;17.59;66.75;98546.97;5138416;28;20212;-59
2022/07/11 05:59:48;;;;;;;3.03;2.83;;;16.60;99.90;;;17.70;66.75;98558.63;5137390;28;20203;-58
2022/07/11 06:02:23;;;;;;;6.15;3.28;;;16.70;99.90;;;17.68;67.07;98552.50;5137723;28;20228;-59
2022/07/11 06:04:56;;;;;;;3.67;3.20;;;16.70;99.90;;;17.74;67.37;98547.56;5135340;28;20208;-54
2022/07/11 06:10:20;;;;;;;3.13;2.92;;;16.90;99.90;;;17.89;66.09;98542.19;5140480;28;20227;-55
2022/07/11 06:12:53;;;;;;;4.15;3.28;;;16.90;99.90;;;18.00;65.94;98546.06;5143557;28;20204;-58
2022/07/11 06:15:26;;;;;;;4.78;3.30;;;17.00;99.90;;;18.09;66.41;98546.44;5138423;28;20216;-56
2022/07/11 06:18:01;;;;;;;3.40;2.78;;;17.10;99.90;;;18.23;65.25;98545.25;5136434;28;20248;-58
2022/07/11 06:20:34;;;;;;;3.15;2.80;;;17.20;99.90;;;18.34;64.64;98547.34;5143741;28;20238;-58
2022/07/11 06:23:07;;;;;;;3.42;3.13;;;17.20;99.90;;;18.33;65.13;98543.88;5137304;28;20251;-58
2022/07/11 06:25:40;;;;;;;4.40;3.40;;;17.20;99.90;;;18.23;65.68;98550.41;5141741;28;20449;-57
2022/07/11 06:28:13;;;;;;;4.95;3.28;;;17.20;99.90;;;18.26;66.01;98549.66;5125892;28;20208;-58
2022/07/11 06:30:46;;;;;;;3.90;3.00;;;17.20;99.90;;;18.39;65.11;98541.50;5141382;28;20647;-58
2022/07/11 06:33:21;;;;;;;3.80;3.50;;;17.20;99.90;;;18.37;64.81;98548.34;5133749;28;20709;-57
2022/07/11 06:35:55;;;;;;;3.58;3.28;;;17.30;99.90;;;18.42;64.61;98540.75;5140373;28;20267;-56
2022/07/11 06:38:29;;;;;;;3.10;2.85;;;17.30;99.90;;;18.46;64.63;98538.34;5139657;28;20266;-58
2022/07/11 06:41:02;;;;;;;3.95;3.08;;;17.40;99.90;;;18.69;63.91;98553.84;5136062;28;20228;-58
2022/07/11 06:43:35;;;;;;;3.30;2.95;;;17.50;99.90;;;18.79;64.35;98547.28;5137534;28;20204;-57
2022/07/11 06:46:08;;;;;;;3.83;3.20;;;17.70;99.90;;;18.94;63.80;98549.53;5137444;28;20196;-56
2022/07/11 06:48:43;;;;;;;3.13;2.92;;;17.80;99.90;;;19.05;63.18;98545.63;5135924;28;20255;-57
2022/07/11 06:51:16;;;;;;;3.95;3.03;;;17.90;99.90;;;19.19;62.63;98541.78;5136782;28;20680;-56
2022/07/11 06:53:50;;;;;;;3.55;3.25;;;18.10;99.90;;;19.34;62.10;98549.19;5137178;28;20208;-57
2022/07/11 06:56:23;;;;;;;3.00;2.80;;;18.20;99.90;;;19.30;62.12;98547.34;5139082;28;20220;-59
2022/07/11 06:58:56;;;;;;;2.65;2.45;;;18.20;99.90;;;19.43;61.68;98544.34;5138570;28;20267;-58
2022/07/11 07:01:29;;;;;;;3.17;2.70;;;18.30;99.90;;;19.64;61.48;98544.16;5140572;28;20235;-58
2022/07/11 07:04:04;;;;;;;3.17;2.78;;;18.40;99.90;;;19.75;60.33;98539.34;5138329;28;20228;-57
2022/07/11 07:06:37;;;;;;;4.10;2.75;;;18.50;99.90;;;20.01;59.76;98545.34;5138831;28;20211;-56
2022/07/11 07:09:10;;;;;;;3.13;2.72;;;18.70;99.90;;;20.21;59.17;98535.56;5139517;28;20208;-57
2022/07/11 07:11:43;;;;;;;2.90;2.67;;;18.80;99.90;;;20.16;59.26;98539.75;5131432;28;20216;-55
2022/07/11 07:14:16;;;;;;;3.03;2.83;;;18.90;99.90;;;20.29;59.29;98536.69;5131317;28;20208;-58
2022/07/11 07:16:50;;;;;;;3.85;3.20;;;19.00;99.80;;;20.40;58.31;98539.56;5132366;28;20256;-58
2022/07/11 07:19:24;;;;;;;3.20;2.90;;;19.10;99.50;;;20.53;58.08;98535.66;5135396;28;20219;-58
2022/07/11 07:21:57;;;;;;;3.40;3.10;;;19.20;99.40;;;20.79;57.78;98538.97;5129500;28;20226;-56
2022/07/11 07:24:31;;;;;;;4.03;3.28;;;19.50;99.40;;;21.14;56.64;98547.72;5136478;28;20664;-59
2022/07/11 07:27:05;;;;;;;3.13;2.90;;;19.70;98.80;;;21.42;55.74;98543.28;5127085;28;20586;-58
2022/07/11 07:29:39;;;;;;;3.13;2.92;;;20.00;98.10;;;21.64;54.20;98552.50;5132612;28;20203;-58
2022/07/11 07:32:12;;;;;;;2.90;2.70;;;20.10;97.40;;;21.63;54.88;98553.31;5137390;28;20265;-58
2022/07/11 07:34:46;;;;;;;3.65;2.63;;;20.10;97.70;;;21.60;55.00;98548.91;5131627;28;20208;-56
2022/07/11 07:37:20;;;;;;;2.97;2.70;;;20.20;97.70;;;21.69;55.90;98545.66;5135127;28;20250;-58
2022/07/11 07:39:53;;;;;;;2.90;2.70;;;20.40;98.00;;;21.80;55.82;98544.19;5135028;28;20286;-59
2022/07/11 07:42:26;;;;;;;3.42;3.13;;;20.40;98.00;;;21.85;54.60;98545.19;5134028;28;20228;-59
2022/07/11 07:44:59;;;;;;;3.40;3.10;;;20.40;97.40;;;21.92;53.96;98551.41;5131707;28;20555;-57
2022/07/11 07:47:34;;;;;;;3.25;3.03;;;20.40;97.10;;;21.79;54.36;98545.91;5134528;28;20208;-58
2022/07/11 07:50:10;;;;;;;3.95;3.35;;;20.30;97.10;;;21.81;54.48;98543.38;5139834;28;20203;-59
2022/07/11 07:52:43;;;;;;;3.83;3.30;;;20.30;97.10;;;21.85;54.27;98534.78;5137362;28;20211;-58
2022/07/11 07:55:17;;;;;;;2.70;2.50;;;20.20;97.20;;;22.04;54.37;98539.56;5127360;28;20254;-57
2022/07/11 07:57:51;;;;;;;3.60;3.30;;;20.40;97.30;;;21.88;53.91;98540.03;5138422;28;20620;-58
2022/07/11 08:03:14;;;;;;;2.88;2.67;;;20.30;96.70;;;22.17;54.03;98522.50;5136315;28;20216;-59
2022/07/11 08:05:49;;;;;;;3.22;2.92;;;20.80;96.90;;;22.70;53.20;98529.69;5135349;28;20723;-56
2022/07/11 08:08:22;;;;;;;3.30;2.72;;;21.30;96.10;;;23.20;51.07;98528.91;5140881;28;21484;-58
2022/07/11 08:10:59;;;;;;;3.13;2.72;;;21.70;95.00;;;23.27;50.76;98529.03;5139402;28;20223;-56
2022/07/11 08:13:52;;;;;;;3.22;2.75;;;21.80;94.80;;;23.23;50.74;98532.44;5145191;28;20283;-57
2022/07/11 08:16:25;;;;;;;3.17;2.92;;;21.80;94.50;;;23.50;50.55;98521.59;5143933;28;20204;-57
2022/07/11 08:19:00;;;;;;;2.63;2.42;;;22.00;94.30;;;23.90;48.31;98529.22;5138226;28;20204;-58
2022/07/11 08:21:35;;;;;;;2.35;2.25;;;22.00;93.30;;;24.14;48.55;98521.72;5136951;28;20219;-59
2022/07/11 08:24:08;;;;;;;2.13;1.92;;;22.30;93.70;;;24.37;47.33;98518.53;5137607;28;20212;-59
2022/07/11 08:26:42;;;;;;;2.75;2.45;;;22.70;92.50;;;24.38;46.98;98520.28;5141891;28;20227;-59
2022/07/11 08:29:15;;;;;;;3.03;2.55;;;22.70;92.30;;;24.53;47.30;98517.91;5139729;28;20496;-59
2022/07/11 08:31:48;;;;;;;2.70;2.50;;;22.70;92.30;;;24.36;47.08;98516.78;5133642;28;20383;-58
2022/07/11 08:34:21;;;;;;;2.13;2.03;;;22.70;92.10;;;24.47;47.77;98520.44;5137156;28;20215;-59
2022/07/11 08:36:55;;;;;;;2.35;2.15;;;22.90;92.20;;;24.59;46.00;98511.88;5131364;28;20255;-58
2022/07/11 08:39:28;;;;;;;2.47;2.30;;;23.00;91.20;;;24.72;46.29;98517.28;5137159;28;20656;-60
2022/07/11 08:42:03;;;;;;;2.20;2.00;;;23.00;91.50;;;24.71;46.31;98509.38;5134862;28;20882;-59
2022/07/11 08:44:37;;;;;;;2.22;2.08;;;23.00;91.30;;;24.90;45.43;98510.47;5136259;28;20210;-60
2022/07/11 08:47:11;;;;;;;2.38;2.17;;;23.40;90.90;;;25.21;44.32;98513.41;5138811;28;20199;-58
2022/07/11 08:49:45;;;;;;;2.50;2.30;;;23.70;89.20;;;25.29;44.69;98503.91;5140821;28;20242;-59
2022/07/11 08:52:21;;;;;;;2.20;2.03;;;23.80;90.00;;;25.54;43.39;98500.63;5136131;28;20227;-60
2022/07/11 08:54:56;;;;;;;2.30;2.20;;;24.10;88.30;;;25.50;44.61;98511.94;5135378;28;20266;-59
2022/07/11 08:57:29;;;;;;;1.88;1.70;;;24.00;89.30;;;25.29;43.96;98506.50;5138204;28;20234;-60
2022/07/11 09:00:06;;;;;;;2.03;1.92;;;23.60;89.20;;;25.12;44.84;98504.59;5131796;28;20212;-60
2022/07/11 09:02:43;;;;;;;2.42;2.22;;;23.30;90.00;;;24.80;45.48;98492.91;5137554;28;20343;-59
2022/07/11 09:05:17;;;;;;;3.13;1.92;;;23.20;90.50;;;24.65;45.35;98499.75;5141945;28;20223;-59
2022/07/11 09:07:51;;;;;;;2.67;2.10;;;22.90;90.60;;;24.41;45.95;98499.41;5135987;28;20200;-59
2022/07/11 09:10:25;;;;;;;2.10;1.90;;;22.70;90.90;;;24.33;46.80;98490.63;5138054;28;20297;-59
2022/07/11 09:13:05;;;;;;;2.05;1.90;;;22.60;91.30;;;24.33;46.11;98495.84;5139858;28;20582;-59
2022/07/11 09:15:41;;;;;;;2.20;1.80;;;22.50;91.40;;;24.32;46.42;98494.06;5138839;28;20222;-60
2022/07/11 09:18:35;;;;;;;1.90;1.80;;;22.70;90.80;;;24.48;46.92;98496.06;5137223;28;20676;-59
2022/07/11 09:26:56;;;;;;;2.20;2.00;;;23.00;90.30;;;24.57;46.44;98490.94;5135912;28;20691;-58
2022/07/11 09:29:29;;;;;;;2.03;1.92;;;22.90;91.40;;;24.53;46.84;98494.38;5142056;28;20638;-59
2022/07/11 09:32:03;;;;;;;2.22;2.03;;;22.90;91.20;;;24.19;47.06;98496.53;5139311;28;20326;-59
2022/07/11 09:34:37;;;;;;;2.20;2.00;;;22.80;91.00;;;23.99;47.20;98490.16;5134004;28;20246;-58
2022/07/11 09:37:17;;;;;;;1.90;1.73;;;22.40;91.30;;;23.83;47.74;98502.97;5139149;28;20219;-59
2022/07/11 09:40:11;;;;;;;1.95;1.85;;;22.30;91.50;;;23.54;49.00;98497.28;5130455;28;20247;-59
2022/07/11 09:42:54;;;;;;;1.90;1.80;;;22.10;92.30;;;23.59;48.73;98497.38;5131696;28;20223;-58
2022/07/11 09:45:30;;;;;;;1.90;1.80;;;22.10;92.20;;;23.50;48.69;98499.84;5140758;28;20231;-59
2022/07/11 09:48:14;;;;;;;2.13;1.80;;;21.90;92.20;;;23.47;49.25;98497.19;5138620;28;20583;-59
2022/07/11 09:51:00;;;;;;;1.88;1.77;;;21.90;92.70;;;23.38;49.11;98500.53;5134842;28;20695;-59
2022/07/11 09:53:33;;;;;;;1.92;1.83;;;21.90;92.30;;;23.23;49.88;98503.72;5141594;28;20286;-59
2022/07/11 09:56:08;;;;;;;2.30;2.05;;;22.00;92.40;;;23.22;50.84;98504.59;5138064;28;20267;-59
2022/07/11 09:58:41;;;;;;;2.35;1.77;;;22.00;93.00;;;23.29;50.16;98506.47;5139133;28;20210;-59
2022/07/11 10:01:16;;;;;;;1.90;1.80;;;22.00;92.80;;;23.58;49.88;98503.47;5134645;28;20227;-58
2022/07/11 10:03:49;;;;;;;1.80;1.70;;;22.20;92.70;;;23.60;49.49;98506.94;5134565;28;20769;-59
2022/07/11 10:06:30;;;;;;;1.80;1.70;;;22.40;92.10;;;23.66;48.03;98495.72;5140930;28;20282;-58
2022/07/11 10:09:05;;;;;;;1.75;1.65;;;22.40;90.90;;;23.81;47.53;98502.13;5135501;28;20282;-57
2022/07/11 10:11:40;;;;;;;1.90;1.80;;;22.50;91.00;;;23.89;47.19;98512.66;5133979;28;20310;-58
2022/07/11 10:14:13;;;;;;;1.67;1.60;;;22.50;91.00;;;23.94;47.14;98516.22;5136423;28;20192;-59
2022/07/11 10:17:00;;;;;;;2.00;1.90;;;22.60;90.70;;;24.06;46.67;98515.50;5134152;28;20220;-58
2022/07/11 10:19:43;;;;;;;1.90;1.70;;;22.60;90.40;;;23.96;48.04;98514.50;5139629;28;20262;-58
2022/07/11 10:22:38;;;;;;;1.60;1.50;;;22.60;91.30;;;23.92;48.54;98511.81;5139341;28;20290;-58
2022/07/11 10:25:21;;;;;;;1.75;1.65;;;22.60;91.80;;;23.68;48.86;98509.69;5136949;28;20204;-56
2022/07/11 10:28:14;;;;;;;1.95;1.85;;;22.50;91.70;;;23.92;48.56;98510.09;5139189;28;20231;-59
2022/07/11 10:30:49;;;;;;;1.90;1.70;;;22.60;91.80;;;24.01;49.07;98514.59;5136168;28;20216;-58
2022/07/11 10:33:23;;;;;;;2.20;2.10;;;22.70;92.10;;;23.96;47.88;98511.91;5141187;28;20666;-58
2022/07/11 10:35:56;;;;;;;2.10;1.80;;;22.60;91.00;;;24.13;47.04;98509.53;5137322;28;20204;-58
2022/07/11 10:38:30;;;;;;;2.00;1.90;;;22.70;90.90;;;23.98;47.51;98509.28;5137836;28;20278;-58
2022/07/11 10:41:03;;;;;;;1.70;1.60;;;22.70;90.90;;;23.87;47.59;98510.91;5138320;28;20293;-59
2022/07/11 10:43:40;;;;;;;2.28;1.77;;;22.50;91.20;;;23.76;48.39;98514.22;5136287;28;20220;-57
2022/07/11 10:46:20;;;;;;;2.08;1.98;;;22.50;91.30;;;23.51;47.57;98514.66;5142200;28;20199;-59
2022/07/11 10:49:01;;;;;;;2.10;1.90;;;22.30;90.70;;;23.45;49.03;98512.81;5138018;28;20568;-58
2022/07/11 10:51:44;;;;;;;2.00;1.90;;;22.10;92.10;;;23.58;49.09;98520.00;5135812;28;20290;-58
2022/07/11 10:54:59;;;;;;;2.38;2.17;;;22.20;92.00;;;23.66;48.23;98512.25;5142380;28;20220;-61
2022/07/11 10:57:42;;;;;;;2.28;2.08;;;22.30;91.40;;;23.76;48.35;98513.34;5130922;28;20205;-60
2022/07/11 11:00:21;;;;;;;1.85;1.75;;;22.40;91.40;;;23.96;48.23;98500.56;5135655;28;21107;-60
2022/07/11 11:03:05;;;;;;;3.03;1.70;;;22.60;91.20;;;24.07;47.62;98509.44;5137959;28;20192;-59